Time;durP1;ratioP1;P1;durP2;ratioP2;P2;SDS_P1;SDS_P2;PMS_P1;PMS_P2;Temp;Humidity;BMP_temperature;BMP_pressure;BME280_temperature;BME280_humidity;BME280_pressure;Samples;Min_cycle;Max_cycle;Signal;HPM_P1;HPM_P2
2023/04/19 00:01:40;;;;;;;4.50;2.63;;;7.70;99.90;;;;;;5019566;28;20924;-79
2023/04/19 00:04:07;;;;;;;3.73;2.50;;;7.60;99.90;;;;;;5022585;28;20187;-80
2023/04/19 00:06:33;;;;;;;4.77;2.73;;;7.60;99.90;;;;;;5023052;28;20610;-80
2023/04/19 00:08:59;;;;;;;6.47;2.40;;;7.50;99.90;;;;;;5019672;28;20191;-79
2023/04/19 00:11:24;;;;;;;3.90;2.73;;;7.50;99.90;;;;;;5023885;28;20622;-80
2023/04/19 00:13:50;;;;;;;4.73;2.67;;;7.40;99.90;;;;;;5020677;28;20234;-80
2023/04/19 00:16:16;;;;;;;5.03;2.57;;;7.30;99.90;;;;;;5023914;28;20262;-81
2023/04/19 00:18:41;;;;;;;7.73;2.67;;;7.20;99.90;;;;;;5022715;28;20190;-80
2023/04/19 00:21:08;;;;;;;4.93;2.47;;;7.20;99.90;;;;;;5024239;28;20207;-80
2023/04/19 00:23:34;;;;;;;3.20;2.87;;;7.10;99.90;;;;;;5021783;28;20183;-80
2023/04/19 00:26:03;;;;;;;6.20;2.57;;;7.00;99.90;;;;;;5023137;28;20189;-80
2023/04/19 00:28:29;;;;;;;4.33;2.40;;;7.00;99.90;;;;;;5018192;28;20190;-80
2023/04/19 00:30:55;;;;;;;6.23;2.40;;;6.90;99.90;;;;;;5021909;28;20197;-81
2023/04/19 00:33:21;;;;;;;6.27;2.80;;;6.90;99.90;;;;;;5026040;28;20523;-80
2023/04/19 00:35:47;;;;;;;4.37;2.60;;;6.80;99.90;;;;;;5027400;28;20182;-80
2023/04/19 00:38:14;;;;;;;4.53;2.60;;;6.80;99.90;;;;;;5025468;28;20692;-80
2023/04/19 00:40:39;;;;;;;4.13;2.50;;;6.80;99.90;;;;;;5018432;28;20230;-80
2023/04/19 00:43:05;;;;;;;5.57;2.77;;;6.70;99.90;;;;;;5027033;28;20179;-81
2023/04/19 00:45:33;;;;;;;6.60;2.60;;;6.60;99.90;;;;;;5034485;28;20248;-82
2023/04/19 00:48:00;;;;;;;4.67;2.70;;;6.60;99.90;;;;;;5034833;28;20167;-80
2023/04/19 00:50:26;;;;;;;4.93;2.70;;;6.60;99.90;;;;;;5034584;28;20309;-80
2023/04/19 00:52:54;;;;;;;6.00;2.50;;;6.60;99.90;;;;;;5032430;28;20206;-81
2023/04/19 00:55:22;;;;;;;6.57;2.57;;;6.60;99.90;;;;;;5014876;28;20163;-81
2023/04/19 00:57:47;;;;;;;4.47;2.30;;;6.50;99.90;;;;;;5014874;28;20534;-81
2023/04/19 01:00:13;;;;;;;4.03;2.47;;;6.50;99.90;;;;;;5013240;28;20199;-80
2023/04/19 01:02:39;;;;;;;5.93;2.70;;;6.40;99.90;;;;;;5014764;28;20186;-80
2023/04/19 01:05:06;;;;;;;4.73;2.87;;;6.40;99.90;;;;;;5014924;28;20178;-80
2023/04/19 01:07:33;;;;;;;4.60;2.50;;;6.30;99.90;;;;;;5014835;28;20183;-81
2023/04/19 01:09:59;;;;;;;8.13;3.07;;;6.30;99.90;;;;;;5013040;28;20175;-81
2023/04/19 01:12:25;;;;;;;3.80;2.40;;;6.20;99.90;;;;;;5014557;28;20174;-80
2023/04/19 01:14:51;;;;;;;8.60;2.87;;;6.20;99.90;;;;;;5014614;28;20163;-81
2023/04/19 01:17:17;;;;;;;4.47;2.67;;;6.20;99.90;;;;;;5014667;28;20179;-80
2023/04/19 01:19:43;;;;;;;6.13;2.57;;;6.10;99.90;;;;;;5014389;28;20265;-81
2023/04/19 01:22:14;;;;;;;6.33;2.50;;;6.10;99.90;;;;;;5014468;28;20168;-80
2023/04/19 01:24:39;;;;;;;4.77;2.70;;;6.00;99.90;;;;;;5013517;28;20170;-80
2023/04/19 01:27:05;;;;;;;7.67;2.40;;;6.00;99.90;;;;;;5014445;28;20176;-80
2023/04/19 01:29:31;;;;;;;5.03;2.37;;;6.00;99.90;;;;;;5014361;28;20258;-81
2023/04/19 01:31:57;;;;;;;6.53;2.50;;;6.00;99.90;;;;;;5014196;28;20179;-80
2023/04/19 01:34:22;;;;;;;5.43;2.43;;;5.90;99.90;;;;;;5014266;28;20617;-80
2023/04/19 01:36:48;;;;;;;5.70;2.70;;;6.00;99.90;;;;;;5014313;28;20171;-80
2023/04/19 01:39:14;;;;;;;4.73;2.57;;;5.90;99.90;;;;;;5028968;28;20191;-80
2023/04/19 01:41:40;;;;;;;5.37;2.70;;;5.70;99.90;;;;;;5013922;28;20337;-81
2023/04/19 01:44:06;;;;;;;7.03;2.67;;;5.70;99.90;;;;;;5014087;28;20261;-81
2023/04/19 01:46:32;;;;;;;4.07;2.33;;;5.70;99.90;;;;;;5012775;28;20245;-80
2023/04/19 01:48:57;;;;;;;4.33;2.43;;;5.80;99.90;;;;;;5014130;28;20178;-80
2023/04/19 01:51:23;;;;;;;3.47;2.30;;;5.70;99.90;;;;;;5012972;28;20179;-80
2023/04/19 01:53:52;;;;;;;3.53;2.23;;;5.70;99.90;;;;;;5013884;28;20182;-81
2023/04/19 01:56:18;;;;;;;5.93;2.47;;;5.70;99.90;;;;;;5013953;28;20159;-81
2023/04/19 01:58:44;;;;;;;6.67;2.40;;;5.70;99.90;;;;;;5012554;28;20565;-80
2023/04/19 02:03:45;;;;;;;7.10;2.40;;;5.50;99.90;;;;;;5172111;22;20237;-79
2023/04/19 02:06:12;;;;;;;6.43;2.50;;;5.50;99.90;;;;;;5017816;28;20181;-80
2023/04/19 02:08:41;;;;;;;3.90;2.40;;;5.50;99.90;;;;;;5015700;28;20188;-80
2023/04/19 02:11:08;;;;;;;3.50;2.47;;;5.50;99.90;;;;;;5033363;28;20317;-80
2023/04/19 02:13:34;;;;;;;5.97;2.43;;;5.50;99.90;;;;;;5033499;28;20664;-83
2023/04/19 02:16:01;;;;;;;7.60;2.33;;;5.40;99.90;;;;;;5033536;28;20167;-82
2023/04/19 02:18:28;;;;;;;7.27;2.60;;;5.30;99.90;;;;;;5033432;28;20524;-82
2023/04/19 02:20:54;;;;;;;5.33;2.50;;;5.40;99.90;;;;;;5031761;28;20214;-82
2023/04/19 02:23:20;;;;;;;6.90;2.33;;;5.40;99.90;;;;;;5033329;28;20170;-81
2023/04/19 02:25:46;;;;;;;3.17;2.17;;;5.30;99.90;;;;;;5033471;28;20603;-81
2023/04/19 02:28:11;;;;;;;5.50;2.30;;;5.30;99.90;;;;;;5033486;28;20667;-81
2023/04/19 02:30:37;;;;;;;6.90;2.63;;;5.30;99.90;;;;;;5033250;28;20240;-80
2023/04/19 02:33:03;;;;;;;5.80;2.13;;;5.20;99.90;;;;;;5015118;28;20196;-80
2023/04/19 02:35:28;;;;;;;3.57;2.23;;;5.30;99.90;;;;;;5027201;28;20186;-82
2023/04/19 02:37:54;;;;;;;6.33;2.47;;;5.20;99.90;;;;;;5039408;28;20221;-81
2023/04/19 02:40:21;;;;;;;7.87;2.27;;;5.20;99.90;;;;;;5039150;28;20213;-80
2023/04/19 02:42:47;;;;;;;3.90;2.70;;;5.20;99.90;;;;;;5057085;28;20596;-81
2023/04/19 02:45:13;;;;;;;5.40;2.17;;;5.30;99.90;;;;;;5057198;28;20178;-80
2023/04/19 02:47:39;;;;;;;4.90;2.60;;;5.20;99.90;;;;;;5057284;28;20502;-82
2023/04/19 02:50:05;;;;;;;3.20;2.10;;;5.30;99.90;;;;;;5056783;28;20253;-82
2023/04/19 02:52:31;;;;;;;5.17;2.10;;;5.20;99.90;;;;;;5056894;28;20185;-80
2023/04/19 02:54:56;;;;;;;4.20;2.13;;;5.20;99.90;;;;;;5056969;28;20177;-81
2023/04/19 02:57:22;;;;;;;3.97;2.13;;;5.20;99.90;;;;;;5056997;28;20170;-80
2023/04/19 02:59:48;;;;;;;4.20;2.10;;;5.20;99.90;;;;;;5056663;28;20201;-81
2023/04/19 03:02:14;;;;;;;2.77;2.03;;;5.20;99.90;;;;;;5056530;28;20660;-81
2023/04/19 03:04:39;;;;;;;7.30;2.80;;;5.10;99.90;;;;;;5038654;28;20280;-83
2023/04/19 03:07:06;;;;;;;8.63;2.30;;;5.10;99.90;;;;;;5056801;28;20177;-81
2023/04/19 03:09:31;;;;;;;5.27;2.30;;;5.10;99.90;;;;;;5056662;28;20529;-80
2023/04/19 03:11:57;;;;;;;4.07;2.27;;;5.10;99.90;;;;;;5056576;28;20574;-80
2023/04/19 03:14:23;;;;;;;7.03;2.53;;;5.10;99.90;;;;;;5056494;28;20189;-81
2023/04/19 03:16:48;;;;;;;3.33;2.20;;;5.10;99.90;;;;;;5056725;28;20597;-81
2023/04/19 03:19:14;;;;;;;8.40;2.73;;;5.00;99.90;;;;;;5056585;28;20185;-82
2023/04/19 03:21:40;;;;;;;3.47;2.37;;;4.90;99.90;;;;;;5056029;28;20639;-81
2023/04/19 03:24:06;;;;;;;3.90;2.57;;;5.00;99.90;;;;;;5056443;28;20216;-81
2023/04/19 03:26:32;;;;;;;4.43;2.57;;;4.90;99.90;;;;;;5056427;28;20174;-81
2023/04/19 03:28:57;;;;;;;5.30;2.43;;;4.80;99.90;;;;;;5056309;28;20182;-81
2023/04/19 03:31:23;;;;;;;4.60;2.60;;;4.80;99.90;;;;;;5038331;28;20236;-81
2023/04/19 03:33:49;;;;;;;6.80;3.30;;;4.70;99.90;;;;;;5056339;28;20181;-81
2023/04/19 03:36:15;;;;;;;5.27;3.10;;;4.80;99.90;;;;;;5038185;28;20651;-82
2023/04/19 03:38:42;;;;;;;6.80;2.67;;;4.80;99.90;;;;;;5056167;28;20178;-80
2023/04/19 03:41:22;;;;;;;5.40;2.80;;;4.80;99.90;;;;;;5037982;28;20218;-81
2023/04/19 03:43:48;;;;;;;6.63;3.03;;;4.80;99.90;;;;;;5056243;28;20173;-80
2023/04/19 03:46:13;;;;;;;7.93;3.37;;;4.80;99.90;;;;;;5055713;28;20170;-80
2023/04/19 03:48:39;;;;;;;4.53;3.23;;;4.80;99.90;;;;;;5055622;28;20174;-81
2023/04/19 03:51:05;;;;;;;5.57;3.43;;;4.80;99.90;;;;;;5055580;28;20315;-82
2023/04/19 03:53:30;;;;;;;7.67;2.70;;;4.80;99.90;;;;;;5055862;28;20177;-80
2023/04/19 03:55:56;;;;;;;4.30;2.57;;;4.80;99.90;;;;;;5055716;28;20592;-81
2023/04/19 03:58:22;;;;;;;5.40;2.63;;;4.80;99.90;;;;;;5056108;28;20162;-81
2023/04/19 04:00:48;;;;;;;6.77;3.23;;;4.70;99.90;;;;;;5055520;28;20679;-80
2023/04/19 04:03:14;;;;;;;6.37;2.57;;;4.80;99.90;;;;;;5055507;28;20229;-81
2023/04/19 04:05:39;;;;;;;4.47;2.73;;;4.80;99.90;;;;;;5055408;28;20173;-82
2023/04/19 04:08:05;;;;;;;5.00;2.83;;;4.80;99.90;;;;;;5055594;28;20611;-81
2023/04/19 04:10:31;;;;;;;7.37;3.30;;;4.90;99.90;;;;;;5055541;28;20174;-80
2023/04/19 04:12:56;;;;;;;6.83;2.60;;;4.80;99.90;;;;;;5055595;28;20185;-81
2023/04/19 04:15:22;;;;;;;4.30;2.50;;;4.80;99.90;;;;;;5055626;28;20178;-81
2023/04/19 04:17:48;;;;;;;5.87;2.90;;;4.70;99.90;;;;;;5055522;28;20166;-81
2023/04/19 04:20:15;;;;;;;5.63;2.40;;;4.70;99.90;;;;;;5054953;28;20208;-81
2023/04/19 04:22:47;;;;;;;4.37;2.53;;;4.80;99.90;;;;;;5055271;28;20227;-80
2023/04/19 04:25:15;;;;;;;8.47;2.57;;;4.70;99.90;;;;;;5055524;28;20170;-81
2023/04/19 04:27:42;;;;;;;6.03;2.57;;;4.80;99.90;;;;;;5055345;28;20184;-81
2023/04/19 04:30:09;;;;;;;4.13;2.60;;;4.80;99.90;;;;;;5053721;28;20527;-79
2023/04/19 04:32:39;;;;;;;4.50;2.47;;;4.70;99.90;;;;;;5053647;28;20559;-80
2023/04/19 04:35:06;;;;;;;4.13;2.30;;;4.70;99.90;;;;;;5054867;28;20177;-79
2023/04/19 04:37:33;;;;;;;5.50;2.40;;;4.60;99.90;;;;;;5054988;28;20593;-79
2023/04/19 04:40:00;;;;;;;4.10;2.20;;;4.70;99.90;;;;;;5054675;28;20198;-80
2023/04/19 04:42:26;;;;;;;4.97;2.63;;;4.80;99.90;;;;;;5054563;28;20265;-80
2023/04/19 04:44:56;;;;;;;4.57;2.37;;;4.70;99.90;;;;;;5054880;28;20304;-78
2023/04/19 04:47:22;;;;;;;3.50;2.20;;;4.70;99.90;;;;;;5050754;28;20194;-78
2023/04/19 04:49:48;;;;;;;7.33;2.30;;;4.80;99.90;;;;;;5034610;28;20182;-78
2023/04/19 04:52:14;;;;;;;5.50;2.40;;;4.90;99.90;;;;;;5034605;28;20175;-80
2023/04/19 04:54:40;;;;;;;3.60;2.33;;;4.90;99.90;;;;;;5034798;28;20197;-80
2023/04/19 04:57:07;;;;;;;4.00;2.33;;;5.00;99.90;;;;;;5042816;28;20169;-79
2023/04/19 04:59:33;;;;;;;3.97;2.00;;;5.00;99.90;;;;;;5024414;28;20209;-78
2023/04/19 05:01:59;;;;;;;4.30;2.27;;;5.10;99.90;;;;;;5035221;28;20672;-78
2023/04/19 05:04:25;;;;;;;3.17;1.90;;;5.20;99.90;;;;;;5045853;28;20208;-79
2023/04/19 05:06:51;;;;;;;4.30;2.27;;;5.30;99.90;;;;;;5053980;28;20205;-79
2023/04/19 05:09:16;;;;;;;5.37;1.93;;;5.40;99.90;;;;;;5054326;28;20515;-79
2023/04/19 05:11:42;;;;;;;4.23;2.10;;;5.40;99.90;;;;;;5054012;28;20241;-79
2023/04/19 05:14:08;;;;;;;5.53;2.40;;;5.60;99.90;;;;;;5054360;28;20180;-79
2023/04/19 05:16:34;;;;;;;5.53;2.10;;;5.60;99.90;;;;;;5054265;28;20227;-79
2023/04/19 05:18:59;;;;;;;3.07;1.57;;;5.70;99.90;;;;;;5036266;28;20223;-79
2023/04/19 05:21:25;;;;;;;3.67;2.07;;;5.80;99.90;;;;;;5052415;28;20216;-79
2023/04/19 05:23:52;;;;;;;5.00;1.90;;;5.90;99.90;;;;;;5054247;28;20535;-79
2023/04/19 05:26:18;;;;;;;4.77;1.67;;;5.90;99.90;;;;;;5054195;28;20173;-79
2023/04/19 05:28:44;;;;;;;5.17;1.83;;;6.10;99.90;;;;;;5054173;28;20597;-80
2023/04/19 05:31:11;;;;;;;5.23;1.90;;;6.10;99.90;;;;;;5053783;28;20181;-79
2023/04/19 05:33:37;;;;;;;4.00;1.70;;;6.10;99.90;;;;;;5053951;28;20173;-79
2023/04/19 05:36:03;;;;;;;5.77;1.70;;;6.10;99.90;;;;;;5053698;28;20186;-78
2023/04/19 05:38:28;;;;;;;3.47;1.70;;;6.10;99.90;;;;;;5054024;28;20169;-79
2023/04/19 05:40:54;;;;;;;4.40;1.70;;;6.20;99.90;;;;;;5053707;28;20540;-79
2023/04/19 05:43:20;;;;;;;4.50;1.60;;;6.30;99.90;;;;;;5053803;28;20174;-79
2023/04/19 05:45:46;;;;;;;3.70;1.70;;;6.30;99.90;;;;;;5036151;28;20170;-78
2023/04/19 05:48:12;;;;;;;5.50;1.90;;;6.20;99.90;;;;;;5053876;28;20254;-79
2023/04/19 05:50:38;;;;;;;3.60;2.13;;;6.30;99.90;;;;;;5053351;28;20182;-79
2023/04/19 05:53:04;;;;;;;2.57;1.50;;;6.20;99.90;;;;;;5053712;28;20624;-78
2023/04/19 05:55:30;;;;;;;7.70;1.80;;;6.40;99.90;;;;;;5052568;28;20188;-80
2023/04/19 05:57:59;;;;;;;2.90;1.50;;;6.50;99.90;;;;;;5053780;28;20158;-79
2023/04/19 06:00:27;;;;;;;2.63;1.53;;;6.50;99.90;;;;;;5053480;28;20271;-79
2023/04/19 06:02:52;;;;;;;2.60;1.70;;;6.50;99.90;;;;;;5022327;28;20635;-79
2023/04/19 06:05:18;;;;;;;2.20;1.60;;;6.60;99.90;;;;;;5013653;28;20266;-78
2023/04/19 06:07:44;;;;;;;5.23;1.60;;;6.70;99.90;;;;;;5012843;28;20606;-79
2023/04/19 06:10:10;;;;;;;2.67;1.50;;;6.80;99.90;;;;;;5013566;28;20255;-79
2023/04/19 06:12:36;;;;;;;3.17;1.70;;;6.90;99.90;;;;;;5013669;28;20262;-80
2023/04/19 06:15:01;;;;;;;2.43;1.30;;;7.00;99.90;;;;;;5013872;28;20174;-79
2023/04/19 06:17:27;;;;;;;2.70;1.70;;;6.90;99.90;;;;;;5013798;28;20492;-80
2023/04/19 06:19:53;;;;;;;4.83;1.67;;;7.00;99.90;;;;;;5012431;28;20242;-79
2023/04/19 06:22:20;;;;;;;2.20;1.30;;;7.10;99.90;;;;;;5013478;28;20168;-79
2023/04/19 06:24:46;;;;;;;3.03;1.40;;;7.30;99.90;;;;;;5013764;28;20175;-79
2023/04/19 06:27:14;;;;;;;2.17;1.40;;;7.50;99.90;;;;;;5013816;28;20531;-79
2023/04/19 06:29:39;;;;;;;2.37;1.43;;;7.50;99.90;;;;;;5013667;28;20164;-80
2023/04/19 06:32:05;;;;;;;2.63;1.27;;;7.70;99.90;;;;;;5013381;28;20175;-79
2023/04/19 06:34:31;;;;;;;4.93;1.43;;;7.60;99.90;;;;;;5013627;28;20258;-80
2023/04/19 06:36:57;;;;;;;2.23;1.10;;;7.70;99.90;;;;;;5013557;28;20278;-79
2023/04/19 06:39:22;;;;;;;1.97;1.30;;;7.70;99.90;;;;;;5012285;28;20234;-78
2023/04/19 06:41:48;;;;;;;3.00;1.40;;;7.80;99.90;;;;;;5013452;28;20222;-79
2023/04/19 06:44:14;;;;;;;1.97;1.10;;;7.90;99.90;;;;;;5013712;28;20599;-78
2023/04/19 06:46:39;;;;;;;2.80;1.43;;;7.90;99.90;;;;;;5013590;28;20175;-79
2023/04/19 06:49:05;;;;;;;3.23;1.50;;;7.90;99.90;;;;;;5013486;28;20167;-82
2023/04/19 06:51:32;;;;;;;3.63;1.40;;;7.80;99.90;;;;;;5011934;28;20515;-80
2023/04/19 06:53:58;;;;;;;2.03;1.33;;;7.80;99.90;;;;;;5013735;28;20201;-82
2023/04/19 06:56:44;;;;;;;2.20;1.40;;;7.90;99.90;;;;;;5012180;28;20606;-81
2023/04/19 06:59:15;;;;;;;3.90;1.30;;;7.90;99.90;;;;;;5028595;28;20199;-82
2023/04/19 07:01:42;;;;;;;2.80;1.50;;;7.80;99.90;;;;;;5013732;28;20210;-83
2023/04/19 07:04:08;;;;;;;3.80;1.50;;;8.00;99.90;;;;;;5035222;28;20583;-82
2023/04/19 07:06:38;;;;;;;1.63;1.30;;;8.20;99.90;;;;;;5051573;28;20578;-81
2023/04/19 07:09:05;;;;;;;3.00;1.30;;;8.20;99.90;;;;;;5053065;28;20252;-81
2023/04/19 07:11:31;;;;;;;1.67;1.30;;;8.30;99.90;;;;;;5052866;28;20201;-80
2023/04/19 07:14:00;;;;;;;2.00;1.57;;;8.40;99.90;;;;;;5053094;28;20171;-82
2023/04/19 07:16:26;;;;;;;3.57;1.50;;;8.50;99.90;;;;;;5052955;28;20177;-81
2023/04/19 07:18:52;;;;;;;3.10;1.67;;;8.40;99.90;;;;;;5053023;28;20158;-83
2023/04/19 07:21:18;;;;;;;1.53;1.40;;;8.60;99.90;;;;;;5052533;28;20283;-82
2023/04/19 07:23:44;;;;;;;5.73;1.70;;;8.70;99.90;;;;;;5056144;28;20224;-81
2023/04/19 07:26:10;;;;;;;3.00;1.60;;;8.80;99.90;;;;;;5056585;28;20173;-82
2023/04/19 07:28:35;;;;;;;2.90;1.63;;;8.80;99.90;;;;;;5056379;28;20601;-81
2023/04/19 07:31:01;;;;;;;1.70;1.40;;;8.80;99.90;;;;;;5056361;28;20173;-82
2023/04/19 07:33:27;;;;;;;1.67;1.40;;;8.70;99.40;;;;;;5056360;28;20181;-82
2023/04/19 07:35:53;;;;;;;3.17;1.60;;;8.90;99.70;;;;;;5056044;28;20181;-82
2023/04/19 07:38:19;;;;;;;2.60;1.47;;;9.00;98.30;;;;;;5056331;28;20173;-83
2023/04/19 07:40:45;;;;;;;2.10;1.40;;;9.10;99.50;;;;;;5038150;28;20550;-82
2023/04/19 07:43:11;;;;;;;5.50;1.70;;;9.30;99.50;;;;;;5056144;28;20170;-82
2023/04/19 07:45:37;;;;;;;2.93;1.57;;;9.40;98.30;;;;;;5056277;28;20166;-81
2023/04/19 07:48:03;;;;;;;2.90;1.83;;;9.50;98.50;;;;;;5056223;28;20212;-82
2023/04/19 07:50:29;;;;;;;2.20;1.50;;;9.60;97.50;;;;;;5055661;28;20273;-81
2023/04/19 07:52:55;;;;;;;2.23;1.47;;;9.80;97.90;;;;;;5056052;28;20171;-83
2023/04/19 07:55:21;;;;;;;2.00;1.23;;;9.90;95.90;;;;;;5055903;28;20311;-82
2023/04/19 07:57:48;;;;;;;3.65;1.88;;;9.80;93.20;;;;;;5055859;28;20181;-82
2023/04/19 08:00:15;;;;;;;2.33;1.50;;;9.80;93.20;;;;;;5055807;28;20654;-81
2023/04/19 08:02:47;;;;;;;2.40;1.50;;;9.60;92.60;;;;;;5055388;28;20364;-82
2023/04/19 08:05:17;;;;;;;2.23;1.57;;;9.70;95.40;;;;;;5055752;28;20182;-82
2023/04/19 08:07:43;;;;;;;3.15;1.58;;;9.90;93.90;;;;;;5055654;28;20188;-82
2023/04/19 08:10:10;;;;;;;3.87;1.40;;;10.00;93.30;;;;;;5055481;28;20166;-81
2023/04/19 08:12:36;;;;;;;3.72;1.67;;;10.10;92.40;;;;;;5054255;28;20182;-84
2023/04/19 08:15:03;;;;;;;2.45;1.55;;;10.00;91.00;;;;;;5055702;28;20178;-81
2023/04/19 08:17:28;;;;;;;3.53;1.50;;;10.00;92.40;;;;;;5054181;28;20186;-82
2023/04/19 08:19:54;;;;;;;9.38;1.60;;;10.20;92.10;;;;;;5055091;28;20645;-82
2023/04/19 08:22:20;;;;;;;4.40;1.75;;;10.20;91.30;;;;;;5055090;28;20177;-82
2023/04/19 08:24:50;;;;;;;2.50;1.60;;;10.20;91.60;;;;;;5055418;28;20179;-82
2023/04/19 08:27:16;;;;;;;5.47;1.20;;;10.40;91.90;;;;;;5037546;28;20174;-82
2023/04/19 08:29:42;;;;;;;2.92;1.60;;;10.50;90.80;;;;;;5055613;28;20173;-82
2023/04/19 08:32:08;;;;;;;2.47;1.65;;;10.40;90.10;;;;;;5037205;28;20190;-82
2023/04/19 08:34:35;;;;;;;2.33;1.63;;;10.50;90.60;;;;;;5054962;28;20185;-81
2023/04/19 08:37:02;;;;;;;4.78;1.90;;;10.50;91.40;;;;;;5054869;28;20181;-82
2023/04/19 08:39:28;;;;;;;3.22;1.50;;;10.50;91.90;;;;;;5037277;28;20624;-82
2023/04/19 08:41:56;;;;;;;1.92;1.38;;;10.70;91.20;;;;;;5054902;28;20214;-82
2023/04/19 08:44:23;;;;;;;2.03;1.40;;;10.70;91.70;;;;;;5053852;28;20185;-82
2023/04/19 08:46:49;;;;;;;2.97;1.40;;;10.70;91.60;;;;;;5055010;28;20608;-82
2023/04/19 08:49:19;;;;;;;1.40;1.23;;;10.80;91.90;;;;;;5054994;28;20162;-82
2023/04/19 08:51:47;;;;;;;1.95;1.50;;;10.90;91.50;;;;;;5054481;28;20201;-82
2023/04/19 08:54:14;;;;;;;2.47;1.70;;;11.00;90.10;;;;;;5054986;28;20645;-82
2023/04/19 08:56:40;;;;;;;3.45;1.63;;;10.80;89.40;;;;;;5054882;28;20180;-82
2023/04/19 08:59:06;;;;;;;5.82;1.80;;;10.80;88.40;;;;;;5054761;28;20158;-81
2023/04/19 09:01:32;;;;;;;3.78;1.80;;;10.80;87.90;;;;;;5054418;28;20212;-82
2023/04/19 09:03:57;;;;;;;3.58;1.42;;;10.80;90.20;;;;;;5054471;28;20319;-81
2023/04/19 09:06:23;;;;;;;5.68;1.52;;;10.80;89.20;;;;;;5054360;28;20493;-81
2023/04/19 09:08:51;;;;;;;3.10;1.60;;;10.80;89.20;;;;;;5054664;28;20185;-82
2023/04/19 09:11:18;;;;;;;4.13;1.73;;;11.00;90.00;;;;;;5054454;28;20668;-83
2023/04/19 09:13:44;;;;;;;3.33;1.40;;;11.10;86.60;;;;;;5054476;28;20166;-81
2023/04/19 09:16:24;;;;;;;3.67;1.48;;;11.00;86.80;;;;;;5054357;28;20232;-81
2023/04/19 09:18:54;;;;;;;3.45;1.60;;;10.80;88.00;;;;;;5054404;28;20161;-82
2023/04/19 09:21:30;;;;;;;5.20;1.55;;;10.90;86.80;;;;;;5053877;28;20216;-82
2023/04/19 09:23:56;;;;;;;2.05;1.40;;;10.90;87.80;;;;;;5054388;28;20169;-82
2023/04/19 09:26:21;;;;;;;2.63;1.35;;;11.00;87.60;;;;;;5052977;28;20177;-81
2023/04/19 09:29:07;;;;;;;2.25;1.63;;;11.10;88.40;;;;;;5054172;28;20172;-81
2023/04/19 09:31:35;;;;;;;2.90;1.48;;;11.00;87.70;;;;;;5053755;28;20190;-81
2023/04/19 09:34:15;;;;;;;4.38;1.60;;;11.20;85.70;;;;;;5054278;28;20178;-81
2023/04/19 09:36:41;;;;;;;3.78;1.50;;;11.30;87.80;;;;;;5053785;28;20174;-81
2023/04/19 09:39:07;;;;;;;2.58;1.60;;;11.40;88.40;;;;;;5054060;28;20249;-82
2023/04/19 09:41:34;;;;;;;2.00;1.40;;;11.60;89.10;;;;;;5053739;28;20651;-82
2023/04/19 09:44:10;;;;;;;2.63;1.40;;;11.90;87.90;;;;;;5053854;28;20240;-81
2023/04/19 09:46:36;;;;;;;2.70;1.65;;;12.20;84.80;;;;;;5053768;28;20510;-81
2023/04/19 09:49:23;;;;;;;2.05;1.30;;;12.10;76.50;;;;;;5052576;28;20173;-80
2023/04/19 09:51:53;;;;;;;1.75;1.30;;;12.10;73.90;;;;;;5053236;28;20233;-81
2023/04/19 09:54:21;;;;;;;10.18;1.63;;;12.30;71.60;;;;;;5053799;28;20589;-81
2023/04/19 09:56:47;;;;;;;4.32;1.50;;;12.20;68.70;;;;;;5053873;28;20185;-82
2023/04/19 09:59:13;;;;;;;1.75;1.10;;;12.20;68.50;;;;;;5053806;28;20173;-81
2023/04/19 10:01:43;;;;;;;2.30;1.30;;;12.30;68.30;;;;;;5053500;28;20590;-81
2023/04/19 10:04:21;;;;;;;2.63;1.40;;;12.20;69.80;;;;;;5033754;28;20214;-81
2023/04/19 10:06:49;;;;;;;2.17;1.35;;;12.40;66.70;;;;;;5033451;28;20257;-80
2023/04/19 10:09:16;;;;;;;2.15;1.50;;;12.10;68.00;;;;;;5032455;28;20171;-81
2023/04/19 10:11:47;;;;;;;5.97;1.50;;;12.30;72.00;;;;;;5033610;28;20166;-82
2023/04/19 10:14:14;;;;;;;4.30;1.75;;;12.40;69.00;;;;;;5033911;28;20554;-82
2023/04/19 10:16:40;;;;;;;5.40;1.40;;;12.60;67.50;;;;;;5033593;28;20178;-82
2023/04/19 10:19:09;;;;;;;3.80;1.02;;;12.70;68.70;;;;;;5033510;28;20217;-81
2023/04/19 10:21:35;;;;;;;3.10;1.40;;;12.90;68.20;;;;;;5033118;28;20256;-81
2023/04/19 10:24:01;;;;;;;3.03;1.40;;;12.70;67.90;;;;;;5033654;28;20487;-81
2023/04/19 10:26:27;;;;;;;2.13;1.20;;;12.70;67.30;;;;;;5033584;28;20181;-81
2023/04/19 10:28:57;;;;;;;2.67;1.40;;;12.50;66.70;;;;;;5033446;28;20175;-81
2023/04/19 10:31:25;;;;;;;2.85;1.40;;;12.60;67.70;;;;;;5033466;28;20832;-81
2023/04/19 10:33:51;;;;;;;1.95;1.33;;;12.80;67.90;;;;;;5033399;28;20174;-82
2023/04/19 10:36:17;;;;;;;2.13;1.25;;;12.90;68.90;;;;;;5033109;28;20182;-81
2023/04/19 10:38:47;;;;;;;2.75;1.40;;;12.90;68.40;;;;;;5033546;28;20179;-80
2023/04/19 10:41:14;;;;;;;2.63;1.30;;;12.90;65.60;;;;;;5033322;28;20202;-79
2023/04/19 10:43:44;;;;;;;4.57;1.25;;;12.90;66.70;;;;;;5033383;28;20174;-80
2023/04/19 10:46:20;;;;;;;6.15;1.48;;;12.90;64.80;;;;;;5033352;28;20182;-80
2023/04/19 10:49:00;;;;;;;3.42;1.35;;;13.10;66.30;;;;;;5033320;28;20610;-79
2023/04/19 10:51:34;;;;;;;2.92;1.40;;;13.00;66.00;;;;;;5033196;28;20197;-80
2023/04/19 10:54:01;;;;;;;3.63;1.35;;;13.00;66.60;;;;;;5048533;28;20173;-79
2023/04/19 10:56:33;;;;;;;5.07;1.20;;;12.80;65.00;;;;;;5034719;28;20256;-79
2023/04/19 10:59:04;;;;;;;3.00;1.40;;;13.00;65.40;;;;;;5037200;28;20175;-79
2023/04/19 11:01:39;;;;;;;2.90;1.33;;;12.90;65.40;;;;;;5036769;28;20675;-79
2023/04/19 11:04:05;;;;;;;7.30;1.27;;;13.00;64.20;;;;;;5037069;28;20174;-79
2023/04/19 11:06:32;;;;;;;5.57;1.58;;;13.00;65.80;;;;;;5036533;28;20632;-80
2023/04/19 11:08:59;;;;;;;1.35;1.00;;;13.00;64.00;;;;;;5036750;28;20193;-79
2023/04/19 11:11:25;;;;;;;2.63;1.10;;;13.30;65.00;;;;;;5036753;28;20166;-79
2023/04/19 11:13:54;;;;;;;3.83;1.48;;;13.50;65.30;;;;;;5028400;28;20601;-80
2023/04/19 11:16:20;;;;;;;4.78;1.45;;;13.40;66.40;;;;;;5026104;28;20245;-80
2023/04/19 11:18:46;;;;;;;2.45;1.45;;;13.40;64.80;;;;;;5036581;28;20179;-78
2023/04/19 11:21:13;;;;;;;3.13;1.65;;;13.50;65.50;;;;;;5036091;28;20248;-80
2023/04/19 11:23:39;;;;;;;4.47;1.48;;;13.40;65.30;;;;;;5036497;28;20601;-81
2023/04/19 11:26:10;;;;;;;6.45;1.50;;;13.30;65.70;;;;;;5036594;28;20210;-79
2023/04/19 11:28:36;;;;;;;1.50;1.13;;;13.60;67.00;;;;;;5036640;28;20495;-79
2023/04/19 11:31:03;;;;;;;2.45;1.33;;;13.70;67.30;;;;;;5036507;28;20167;-79
2023/04/19 11:33:33;;;;;;;2.17;1.20;;;13.70;65.00;;;;;;5036250;28;20221;-79
2023/04/19 11:35:59;;;;;;;2.47;1.30;;;13.90;66.90;;;;;;5036008;28;20343;-79
2023/04/19 11:38:27;;;;;;;4.88;1.60;;;13.70;65.30;;;;;;5036268;28;20166;-79
2023/04/19 11:41:04;;;;;;;3.28;1.45;;;13.90;65.70;;;;;;5034848;28;20257;-79
2023/04/19 11:43:36;;;;;;;3.05;1.50;;;13.90;66.90;;;;;;5035020;28;20217;-79
2023/04/19 11:46:10;;;;;;;3.85;1.17;;;13.50;65.10;;;;;;5051521;28;20181;-79
2023/04/19 11:48:36;;;;;;;4.38;1.10;;;13.20;66.20;;;;;;5036207;28;20535;-80
2023/04/19 11:51:03;;;;;;;4.07;1.30;;;13.30;69.70;;;;;;5035811;28;20167;-79
2023/04/19 11:53:30;;;;;;;3.45;1.63;;;13.60;65.50;;;;;;5036068;28;20205;-82
2023/04/19 11:56:07;;;;;;;2.42;1.60;;;13.50;64.20;;;;;;5051418;28;20179;-80
2023/04/19 11:58:46;;;;;;;3.47;1.73;;;13.50;67.10;;;;;;5036001;28;20508;-80
2023/04/19 12:01:19;;;;;;;3.47;1.80;;;13.70;67.40;;;;;;5035690;28;20206;-79
2023/04/19 12:03:53;;;;;;;6.13;1.70;;;13.60;67.00;;;;;;5052986;28;20237;-79
2023/04/19 12:06:24;;;;;;;2.78;1.48;;;13.70;66.30;;;;;;5037785;28;20196;-79
2023/04/19 12:08:51;;;;;;;2.78;1.40;;;13.70;68.30;;;;;;5055351;28;20484;-80
2023/04/19 12:11:21;;;;;;;5.60;1.80;;;13.60;68.10;;;;;;5055555;28;20371;-80
2023/04/19 12:13:48;;;;;;;2.55;1.45;;;13.60;67.90;;;;;;5055928;28;20522;-80
2023/04/19 12:16:14;;;;;;;3.40;1.70;;;13.40;67.70;;;;;;5055576;28;20174;-80
2023/04/19 12:18:50;;;;;;;3.13;1.67;;;13.30;67.90;;;;;;5055532;28;20675;-80
2023/04/19 12:21:25;;;;;;;2.10;1.40;;;13.50;68.40;;;;;;5055088;28;20209;-79
2023/04/19 12:23:56;;;;;;;5.90;1.67;;;13.70;67.30;;;;;;5055401;28;20173;-80
2023/04/19 12:26:23;;;;;;;3.10;1.67;;;14.00;70.00;;;;;;5055669;28;20182;-80
2023/04/19 12:28:48;;;;;;;3.05;1.30;;;14.00;66.50;;;;;;5055398;28;20180;-79
2023/04/19 12:31:15;;;;;;;3.35;1.67;;;14.10;66.20;;;;;;5055293;28;20174;-80
2023/04/19 12:33:41;;;;;;;2.35;1.73;;;14.30;66.70;;;;;;5055220;28;20550;-79
2023/04/19 12:36:07;;;;;;;3.13;1.40;;;14.40;67.80;;;;;;5055025;28;20178;-79
2023/04/19 12:38:32;;;;;;;2.97;1.73;;;14.40;67.00;;;;;;5054857;28;20264;-79
2023/04/19 12:40:58;;;;;;;2.63;1.60;;;14.10;66.40;;;;;;5054814;28;20210;-80
2023/04/19 12:43:24;;;;;;;4.47;1.70;;;13.80;67.00;;;;;;5054916;28;20174;-79
2023/04/19 12:45:49;;;;;;;2.08;1.67;;;13.80;67.60;;;;;;5055022;28;20174;-79
2023/04/19 12:48:15;;;;;;;3.15;1.70;;;13.90;68.50;;;;;;5054995;28;20552;-79
2023/04/19 12:50:41;;;;;;;4.57;2.05;;;13.70;68.00;;;;;;5053439;28;20178;-80
2023/04/19 12:53:08;;;;;;;3.13;1.98;;;13.50;65.90;;;;;;5054557;28;20177;-78
2023/04/19 12:55:34;;;;;;;4.57;1.58;;;13.40;68.30;;;;;;5036963;28;20178;-79